sensor_id;sensor_type;location;lat;lon;timestamp;pressure;altitude;pressure_sealevel;temperature;humidity
59435;BME280;45241;49.768;8.636;2023-07-08T00:00:43;100201.78;;;25.20;42.12
59435;BME280;45241;49.768;8.636;2023-07-08T00:03:08;100208.78;;;25.03;42.76
59435;BME280;45241;49.768;8.636;2023-07-08T00:05:34;100199.56;;;24.93;42.18
59435;BME280;45241;49.768;8.636;2023-07-08T00:08:00;100198.31;;;24.76;44.33
59435;BME280;45241;49.768;8.636;2023-07-08T00:10:27;100193.91;;;24.80;44.06
59435;BME280;45241;49.768;8.636;2023-07-08T00:12:56;100188.59;;;24.54;44.97
59435;BME280;45241;49.768;8.636;2023-07-08T00:15:25;100185.81;;;24.59;44.27
59435;BME280;45241;49.768;8.636;2023-07-08T00:17:51;100178.06;;;24.32;44.63
59435;BME280;45241;49.768;8.636;2023-07-08T00:22:46;100170.06;;;24.41;45.80
59435;BME280;45241;49.768;8.636;2023-07-08T00:25:14;100176.44;;;24.26;45.79
59435;BME280;45241;49.768;8.636;2023-07-08T00:27:40;100165.88;;;24.04;47.89
59435;BME280;45241;49.768;8.636;2023-07-08T00:32:44;100174.19;;;23.79;48.33
59435;BME280;45241;49.768;8.636;2023-07-08T00:35:09;100171.00;;;23.52;49.74
59435;BME280;45241;49.768;8.636;2023-07-08T00:37:34;100174.06;;;23.30;49.31
59435;BME280;45241;49.768;8.636;2023-07-08T00:40:00;100170.22;;;23.41;49.50
59435;BME280;45241;49.768;8.636;2023-07-08T00:42:25;100177.06;;;23.13;51.67
59435;BME280;45241;49.768;8.636;2023-07-08T00:44:51;100180.06;;;23.32;50.17
59435;BME280;45241;49.768;8.636;2023-07-08T00:47:17;100174.34;;;23.28;52.97
59435;BME280;45241;49.768;8.636;2023-07-08T00:49:46;100184.19;;;23.14;51.88
59435;BME280;45241;49.768;8.636;2023-07-08T00:52:17;100178.44;;;22.90;53.02
59435;BME280;45241;49.768;8.636;2023-07-08T00:54:43;100186.06;;;23.08;52.27
59435;BME280;45241;49.768;8.636;2023-07-08T00:57:08;100193.19;;;22.69;53.93
59435;BME280;45241;49.768;8.636;2023-07-08T00:59:39;100192.94;;;22.75;53.94
59435;BME280;45241;49.768;8.636;2023-07-08T01:02:09;100199.75;;;22.68;55.40
59435;BME280;45241;49.768;8.636;2023-07-08T01:05:01;100204.63;;;22.35;56.89
59435;BME280;45241;49.768;8.636;2023-07-08T01:07:30;100200.84;;;22.62;56.37
59435;BME280;45241;49.768;8.636;2023-07-08T01:10:03;100205.50;;;22.66;56.90
59435;BME280;45241;49.768;8.636;2023-07-08T01:12:37;100211.75;;;22.46;55.77
59435;BME280;45241;49.768;8.636;2023-07-08T01:15:06;100214.94;;;22.23;57.68
59435;BME280;45241;49.768;8.636;2023-07-08T01:17:31;100211.13;;;22.24;58.03
59435;BME280;45241;49.768;8.636;2023-07-08T01:20:01;100210.38;;;22.39;57.87
59435;BME280;45241;49.768;8.636;2023-07-08T01:22:31;100207.63;;;22.39;58.11
59435;BME280;45241;49.768;8.636;2023-07-08T01:24:58;100205.94;;;22.27;57.24
59435;BME280;45241;49.768;8.636;2023-07-08T01:27:29;100205.94;;;22.22;57.53
59435;BME280;45241;49.768;8.636;2023-07-08T01:29:57;100205.88;;;22.17;56.82
59435;BME280;45241;49.768;8.636;2023-07-08T01:32:23;100212.22;;;22.23;57.72
59435;BME280;45241;49.768;8.636;2023-07-08T01:34:49;100207.03;;;22.21;57.76
59435;BME280;45241;49.768;8.636;2023-07-08T01:37:58;100206.69;;;22.08;57.47
59435;BME280;45241;49.768;8.636;2023-07-08T01:40:35;100206.19;;;22.26;56.81
59435;BME280;45241;49.768;8.636;2023-07-08T01:43:03;100201.44;;;21.91;58.97
59435;BME280;45241;49.768;8.636;2023-07-08T01:45:38;100197.84;;;21.80;59.44
59435;BME280;45241;49.768;8.636;2023-07-08T01:48:13;100198.25;;;21.52;60.27
59435;BME280;45241;49.768;8.636;2023-07-08T01:50:50;100195.56;;;21.62;60.21
59435;BME280;45241;49.768;8.636;2023-07-08T01:53:20;100190.88;;;21.52;60.16
59435;BME280;45241;49.768;8.636;2023-07-08T01:55:46;100184.78;;;21.40;59.84
59435;BME280;45241;49.768;8.636;2023-07-08T01:58:11;100188.53;;;21.29;62.62
59435;BME280;45241;49.768;8.636;2023-07-08T02:00:37;100187.75;;;21.38;61.69
59435;BME280;45241;49.768;8.636;2023-07-08T02:03:02;100187.94;;;21.22;62.35
59435;BME280;45241;49.768;8.636;2023-07-08T02:05:27;100178.53;;;21.45;61.91
59435;BME280;45241;49.768;8.636;2023-07-08T02:07:53;100175.19;;;21.32;62.29
59435;BME280;45241;49.768;8.636;2023-07-08T02:10:18;100164.56;;;21.31;62.11
59435;BME280;45241;49.768;8.636;2023-07-08T02:12:43;100175.22;;;21.37;62.56
59435;BME280;45241;49.768;8.636;2023-07-08T02:15:09;100170.75;;;21.16;60.70
59435;BME280;45241;49.768;8.636;2023-07-08T02:17:35;100163.63;;;21.15;61.65
59435;BME280;45241;49.768;8.636;2023-07-08T02:20:00;100161.78;;;21.26;60.88
59435;BME280;45241;49.768;8.636;2023-07-08T02:22:25;100167.84;;;21.38;59.93
59435;BME280;45241;49.768;8.636;2023-07-08T02:24:51;100166.78;;;21.39;60.79
59435;BME280;45241;49.768;8.636;2023-07-08T02:27:16;100166.03;;;21.06;60.98
59435;BME280;45241;49.768;8.636;2023-07-08T02:29:42;100163.97;;;21.24;58.93
59435;BME280;45241;49.768;8.636;2023-07-08T02:32:08;100158.31;;;21.40;58.46
59435;BME280;45241;49.768;8.636;2023-07-08T02:34:35;100160.28;;;21.50;57.50
59435;BME280;45241;49.768;8.636;2023-07-08T02:37:00;100160.56;;;21.49;58.11
59435;BME280;45241;49.768;8.636;2023-07-08T02:39:26;100164.94;;;21.50;60.00
59435;BME280;45241;49.768;8.636;2023-07-08T02:41:51;100162.47;;;21.48;60.44
59435;BME280;45241;49.768;8.636;2023-07-08T02:44:16;100163.47;;;21.32;60.09
59435;BME280;45241;49.768;8.636;2023-07-08T02:46:41;100174.41;;;21.37;58.68
59435;BME280;45241;49.768;8.636;2023-07-08T02:49:07;100174.13;;;21.33;59.55
59435;BME280;45241;49.768;8.636;2023-07-08T02:51:32;100176.59;;;21.40;59.61
59435;BME280;45241;49.768;8.636;2023-07-08T02:53:58;100178.13;;;21.21;62.03
59435;BME280;45241;49.768;8.636;2023-07-08T02:56:23;100183.09;;;21.29;61.58
59435;BME280;45241;49.768;8.636;2023-07-08T02:58:49;100182.50;;;21.22;62.10
59435;BME280;45241;49.768;8.636;2023-07-08T03:01:14;100184.66;;;21.20;62.44
59435;BME280;45241;49.768;8.636;2023-07-08T03:03:46;100176.47;;;21.20;61.43
59435;BME280;45241;49.768;8.636;2023-07-08T03:06:12;100173.97;;;21.13;62.75
59435;BME280;45241;49.768;8.636;2023-07-08T03:08:38;100179.16;;;21.14;60.83
59435;BME280;45241;49.768;8.636;2023-07-08T03:11:05;100180.09;;;20.93;62.39
59435;BME280;45241;49.768;8.636;2023-07-08T03:13:31;100185.38;;;21.05;61.85
59435;BME280;45241;49.768;8.636;2023-07-08T03:15:59;100213.00;;;20.60;62.34
59435;BME280;45241;49.768;8.636;2023-07-08T03:18:24;100193.91;;;20.81;60.01
59435;BME280;45241;49.768;8.636;2023-07-08T03:20:52;100205.25;;;20.73;61.24
59435;BME280;45241;49.768;8.636;2023-07-08T03:23:17;100217.69;;;20.91;60.85
59435;BME280;45241;49.768;8.636;2023-07-08T03:25:43;100213.09;;;20.65;62.99
59435;BME280;45241;49.768;8.636;2023-07-08T03:28:08;100220.31;;;20.27;63.65
59435;BME280;45241;49.768;8.636;2023-07-08T03:30:40;100207.00;;;20.58;62.50
59435;BME280;45241;49.768;8.636;2023-07-08T03:33:05;100216.22;;;20.51;63.87
59435;BME280;45241;49.768;8.636;2023-07-08T03:35:31;100211.63;;;20.30;62.77
59435;BME280;45241;49.768;8.636;2023-07-08T03:37:56;100215.38;;;20.51;63.58
59435;BME280;45241;49.768;8.636;2023-07-08T03:40:22;100203.50;;;20.35;62.29
59435;BME280;45241;49.768;8.636;2023-07-08T03:42:47;100206.81;;;20.64;63.50
59435;BME280;45241;49.768;8.636;2023-07-08T03:45:12;100210.38;;;20.65;62.97
59435;BME280;45241;49.768;8.636;2023-07-08T03:47:38;100212.19;;;20.59;63.91
59435;BME280;45241;49.768;8.636;2023-07-08T03:50:03;100212.19;;;20.59;63.91
59435;BME280;45241;49.768;8.636;2023-07-08T03:52:28;100214.91;;;20.59;64.22
59435;BME280;45241;49.768;8.636;2023-07-08T03:54:54;100212.75;;;20.61;64.04
59435;BME280;45241;49.768;8.636;2023-07-08T03:57:19;100203.59;;;20.45;65.08
59435;BME280;45241;49.768;8.636;2023-07-08T03:59:44;100202.44;;;20.63;64.53
59435;BME280;45241;49.768;8.636;2023-07-08T04:02:10;100201.81;;;20.83;64.01
59435;BME280;45241;49.768;8.636;2023-07-08T04:04:36;100201.72;;;20.73;63.42
59435;BME280;45241;49.768;8.636;2023-07-08T04:07:03;100194.97;;;20.80;62.25
59435;BME280;45241;49.768;8.636;2023-07-08T04:09:28;100199.22;;;20.98;63.14
59435;BME280;45241;49.768;8.636;2023-07-08T04:11:54;100204.06;;;20.91;64.06
59435;BME280;45241;49.768;8.636;2023-07-08T04:14:19;100198.13;;;20.99;62.83
59435;BME280;45241;49.768;8.636;2023-07-08T04:19:13;100194.09;;;21.07;62.21
59435;BME280;45241;49.768;8.636;2023-07-08T04:21:40;100202.88;;;21.14;62.78
59435;BME280;45241;49.768;8.636;2023-07-08T04:24:09;100197.78;;;21.28;62.85
59435;BME280;45241;49.768;8.636;2023-07-08T04:26:34;100192.38;;;21.33;63.09
59435;BME280;45241;49.768;8.636;2023-07-08T04:29:01;100197.84;;;21.33;62.73
59435;BME280;45241;49.768;8.636;2023-07-08T04:31:26;100191.91;;;21.46;63.53
59435;BME280;45241;49.768;8.636;2023-07-08T04:33:51;100196.94;;;21.59;63.10
59435;BME280;45241;49.768;8.636;2023-07-08T04:36:17;100201.63;;;21.74;62.90
59435;BME280;45241;49.768;8.636;2023-07-08T04:38:42;100200.00;;;21.78;62.39
59435;BME280;45241;49.768;8.636;2023-07-08T04:41:11;100199.25;;;21.88;62.18
59435;BME280;45241;49.768;8.636;2023-07-08T04:43:37;100190.50;;;21.91;62.62
59435;BME280;45241;49.768;8.636;2023-07-08T04:46:04;100208.28;;;21.98;63.46
59435;BME280;45241;49.768;8.636;2023-07-08T04:48:30;100207.25;;;22.10;62.46
59435;BME280;45241;49.768;8.636;2023-07-08T04:50:57;100209.75;;;22.21;61.15
59435;BME280;45241;49.768;8.636;2023-07-08T04:53:23;100203.75;;;22.24;60.41
59435;BME280;45241;49.768;8.636;2023-07-08T04:55:51;100211.19;;;22.39;61.10
59435;BME280;45241;49.768;8.636;2023-07-08T04:58:17;100199.47;;;22.49;61.41
59435;BME280;45241;49.768;8.636;2023-07-08T05:00:43;100204.69;;;22.61;60.42
59435;BME280;45241;49.768;8.636;2023-07-08T05:03:08;100208.75;;;22.68;61.14
59435;BME280;45241;49.768;8.636;2023-07-08T05:05:33;100201.69;;;22.77;60.20
59435;BME280;45241;49.768;8.636;2023-07-08T05:07:59;100211.53;;;22.73;59.97
59435;BME280;45241;49.768;8.636;2023-07-08T05:10:25;100201.09;;;22.70;62.46
59435;BME280;45241;49.768;8.636;2023-07-08T05:12:51;100195.66;;;22.75;60.75
59435;BME280;45241;49.768;8.636;2023-07-08T05:15:16;100196.75;;;22.69;62.65
59435;BME280;45241;49.768;8.636;2023-07-08T05:17:41;100201.13;;;22.75;62.34
59435;BME280;45241;49.768;8.636;2023-07-08T05:20:09;100197.28;;;22.81;58.45
59435;BME280;45241;49.768;8.636;2023-07-08T05:22:35;100203.31;;;23.04;54.11
59435;BME280;45241;49.768;8.636;2023-07-08T05:25:01;100205.50;;;23.22;56.58
59435;BME280;45241;49.768;8.636;2023-07-08T05:27:26;100208.81;;;23.19;60.52
59435;BME280;45241;49.768;8.636;2023-07-08T05:29:52;100224.09;;;22.95;64.08
59435;BME280;45241;49.768;8.636;2023-07-08T05:32:19;100230.94;;;22.72;67.18
59435;BME280;45241;49.768;8.636;2023-07-08T05:34:44;100222.44;;;22.63;62.53
59435;BME280;45241;49.768;8.636;2023-07-08T05:37:11;100231.16;;;22.55;58.97
59435;BME280;45241;49.768;8.636;2023-07-08T05:39:36;100237.75;;;22.74;62.60
59435;BME280;45241;49.768;8.636;2023-07-08T05:42:02;100237.50;;;22.86;65.10
59435;BME280;45241;49.768;8.636;2023-07-08T05:44:27;100245.13;;;22.84;64.45
59435;BME280;45241;49.768;8.636;2023-07-08T05:46:52;100256.28;;;22.57;65.36
59435;BME280;45241;49.768;8.636;2023-07-08T05:49:18;100271.81;;;22.36;64.79
59435;BME280;45241;49.768;8.636;2023-07-08T05:51:44;100281.34;;;22.34;64.66
59435;BME280;45241;49.768;8.636;2023-07-08T05:54:09;100283.47;;;22.31;65.68
59435;BME280;45241;49.768;8.636;2023-07-08T05:56:35;100289.06;;;22.52;65.51
59435;BME280;45241;49.768;8.636;2023-07-08T05:59:00;100296.50;;;22.72;65.76
59435;BME280;45241;49.768;8.636;2023-07-08T06:01:25;100302.78;;;22.82;65.18
59435;BME280;45241;49.768;8.636;2023-07-08T06:03:51;100300.31;;;22.71;65.02
59435;BME280;45241;49.768;8.636;2023-07-08T06:06:16;100298.34;;;22.51;64.23
59435;BME280;45241;49.768;8.636;2023-07-08T06:08:42;100294.56;;;22.62;65.21
59435;BME280;45241;49.768;8.636;2023-07-08T06:11:08;100288.28;;;22.67;63.93
59435;BME280;45241;49.768;8.636;2023-07-08T06:13:33;100286.91;;;22.64;63.86
59435;BME280;45241;49.768;8.636;2023-07-08T06:15:58;100279.56;;;22.75;64.09
59435;BME280;45241;49.768;8.636;2023-07-08T06:18:24;100284.22;;;22.79;64.28
59435;BME280;45241;49.768;8.636;2023-07-08T06:20:57;100289.09;;;22.67;64.37
59435;BME280;45241;49.768;8.636;2023-07-08T06:23:23;100306.81;;;22.49;65.59
59435;BME280;45241;49.768;8.636;2023-07-08T06:25:48;100313.38;;;22.48;66.75
59435;BME280;45241;49.768;8.636;2023-07-08T06:28:14;100318.34;;;22.62;66.52
59435;BME280;45241;49.768;8.636;2023-07-08T06:30:39;100314.09;;;22.34;81.07
59435;BME280;45241;49.768;8.636;2023-07-08T06:33:04;100306.97;;;21.80;87.70
59435;BME280;45241;49.768;8.636;2023-07-08T06:35:30;100312.72;;;21.47;91.53
59435;BME280;45241;49.768;8.636;2023-07-08T06:37:55;100307.88;;;21.54;96.18
59435;BME280;45241;49.768;8.636;2023-07-08T06:40:20;100304.81;;;21.45;98.40
59435;BME280;45241;49.768;8.636;2023-07-08T06:42:46;100307.72;;;21.33;98.78
59435;BME280;45241;49.768;8.636;2023-07-08T06:45:12;100297.53;;;21.24;100.00
59435;BME280;45241;49.768;8.636;2023-07-08T06:47:37;100299.31;;;21.08;100.00
59435;BME280;45241;49.768;8.636;2023-07-08T06:50:03;100287.38;;;20.87;100.00
59435;BME280;45241;49.768;8.636;2023-07-08T06:52:28;100273.97;;;21.07;100.00
59435;BME280;45241;49.768;8.636;2023-07-08T06:55:00;100280.66;;;21.27;100.00
59435;BME280;45241;49.768;8.636;2023-07-08T06:57:25;100271.97;;;21.30;100.00
59435;BME280;45241;49.768;8.636;2023-07-08T06:59:51;100268.28;;;21.14;100.00
59435;BME280;45241;49.768;8.636;2023-07-08T07:02:16;100263.84;;;21.40;100.00
59435;BME280;45241;49.768;8.636;2023-07-08T07:04:42;100258.09;;;21.68;100.00
59435;BME280;45241;49.768;8.636;2023-07-08T07:07:07;100268.47;;;21.71;100.00
59435;BME280;45241;49.768;8.636;2023-07-08T07:09:32;100274.28;;;21.85;100.00
59435;BME280;45241;49.768;8.636;2023-07-08T07:11:58;100293.78;;;21.62;100.00
59435;BME280;45241;49.768;8.636;2023-07-08T07:14:23;100287.09;;;21.85;100.00
59435;BME280;45241;49.768;8.636;2023-07-08T07:16:48;100308.28;;;21.67;100.00
59435;BME280;45241;49.768;8.636;2023-07-08T07:19:14;100310.09;;;21.99;100.00
59435;BME280;45241;49.768;8.636;2023-07-08T07:21:39;100321.72;;;22.26;100.00
59435;BME280;45241;49.768;8.636;2023-07-08T07:24:04;100339.16;;;22.20;100.00
59435;BME280;45241;49.768;8.636;2023-07-08T07:26:32;100351.38;;;22.08;100.00
59435;BME280;45241;49.768;8.636;2023-07-08T07:28:57;100354.63;;;22.05;100.00
59435;BME280;45241;49.768;8.636;2023-07-08T07:31:22;100352.00;;;22.20;100.00
59435;BME280;45241;49.768;8.636;2023-07-08T07:33:48;100365.06;;;22.18;98.27
59435;BME280;45241;49.768;8.636;2023-07-08T07:36:13;100353.88;;;22.19;94.73
59435;BME280;45241;49.768;8.636;2023-07-08T07:38:38;100362.75;;;22.37;99.34
59435;BME280;45241;49.768;8.636;2023-07-08T07:41:04;100359.47;;;22.40;99.94
59435;BME280;45241;49.768;8.636;2023-07-08T07:43:32;100385.22;;;22.54;100.00
59435;BME280;45241;49.768;8.636;2023-07-08T07:45:58;100383.31;;;22.54;100.00
59435;BME280;45241;49.768;8.636;2023-07-08T07:48:23;100378.16;;;22.63;100.00
59435;BME280;45241;49.768;8.636;2023-07-08T07:50:50;100396.25;;;22.74;100.00
59435;BME280;45241;49.768;8.636;2023-07-08T07:53:17;100398.66;;;22.61;99.75
59435;BME280;45241;49.768;8.636;2023-07-08T07:55:42;100385.84;;;22.71;98.61
59435;BME280;45241;49.768;8.636;2023-07-08T07:58:08;100395.19;;;22.85;100.00
59435;BME280;45241;49.768;8.636;2023-07-08T08:00:36;100404.19;;;22.81;99.60
59435;BME280;45241;49.768;8.636;2023-07-08T08:03:01;100401.50;;;22.96;92.86
59435;BME280;45241;49.768;8.636;2023-07-08T08:05:26;100397.50;;;23.34;97.28
59435;BME280;45241;49.768;8.636;2023-07-08T08:07:52;100403.53;;;23.62;89.68
59435;BME280;45241;49.768;8.636;2023-07-08T08:10:17;100397.00;;;23.68;83.39
59435;BME280;45241;49.768;8.636;2023-07-08T08:12:42;100395.88;;;23.74;81.88
59435;BME280;45241;49.768;8.636;2023-07-08T08:15:08;100393.44;;;23.93;76.43
59435;BME280;45241;49.768;8.636;2023-07-08T08:17:33;100388.47;;;24.20;86.13
59435;BME280;45241;49.768;8.636;2023-07-08T08:19:59;100401.56;;;24.39;80.69
59435;BME280;45241;49.768;8.636;2023-07-08T08:22:24;100398.31;;;24.21;66.47
59435;BME280;45241;49.768;8.636;2023-07-08T08:24:49;100400.81;;;24.13;66.27
59435;BME280;45241;49.768;8.636;2023-07-08T08:27:15;100407.41;;;24.07;64.79
59435;BME280;45241;49.768;8.636;2023-07-08T08:29:40;100404.63;;;24.12;74.98
59435;BME280;45241;49.768;8.636;2023-07-08T08:32:06;100406.03;;;24.09;62.74
59435;BME280;45241;49.768;8.636;2023-07-08T08:34:31;100396.91;;;24.39;66.16
59435;BME280;45241;49.768;8.636;2023-07-08T08:36:57;100401.69;;;24.88;67.53
59435;BME280;45241;49.768;8.636;2023-07-08T08:39:22;100405.91;;;25.19;66.38
59435;BME280;45241;49.768;8.636;2023-07-08T08:41:50;100410.78;;;25.28;66.62
59435;BME280;45241;49.768;8.636;2023-07-08T08:44:23;100400.16;;;25.60;62.08
59435;BME280;45241;49.768;8.636;2023-07-08T08:50:31;100409.38;;;25.69;62.69
59435;BME280;45241;49.768;8.636;2023-07-08T08:52:59;100403.78;;;25.85;62.17
59435;BME280;45241;49.768;8.636;2023-07-08T08:55:25;100399.19;;;26.04;61.92
59435;BME280;45241;49.768;8.636;2023-07-08T08:58:27;100390.38;;;26.36;61.47
59435;BME280;45241;49.768;8.636;2023-07-08T09:00:54;100394.06;;;26.50;60.63
59435;BME280;45241;49.768;8.636;2023-07-08T09:03:52;100391.06;;;26.47;58.73
59435;BME280;45241;49.768;8.636;2023-07-08T09:06:25;100388.72;;;26.35;57.21
59435;BME280;45241;49.768;8.636;2023-07-08T09:08:52;100394.09;;;26.69;59.85
59435;BME280;45241;49.768;8.636;2023-07-08T09:11:39;100395.13;;;26.97;59.34
59435;BME280;45241;49.768;8.636;2023-07-08T09:14:28;100388.59;;;27.12;56.25
59435;BME280;45241;49.768;8.636;2023-07-08T09:19:43;100375.59;;;27.55;56.98
59435;BME280;45241;49.768;8.636;2023-07-08T09:22:32;100382.84;;;27.65;55.37
59435;BME280;45241;49.768;8.636;2023-07-08T09:25:22;100366.97;;;27.75;58.08
59435;BME280;45241;49.768;8.636;2023-07-08T09:27:49;100361.25;;;27.72;57.71
59435;BME280;45241;49.768;8.636;2023-07-08T09:30:16;100362.31;;;28.03;57.91
59435;BME280;45241;49.768;8.636;2023-07-08T09:32:42;100359.97;;;27.83;56.20
59435;BME280;45241;49.768;8.636;2023-07-08T09:35:08;100363.69;;;27.73;56.63
59435;BME280;45241;49.768;8.636;2023-07-08T09:37:36;100367.56;;;27.72;57.30
59435;BME280;45241;49.768;8.636;2023-07-08T09:40:15;100365.88;;;27.90;58.43
59435;BME280;45241;49.768;8.636;2023-07-08T09:42:41;100356.81;;;28.03;57.32
59435;BME280;45241;49.768;8.636;2023-07-08T09:45:17;100351.72;;;28.65;58.09
59435;BME280;45241;49.768;8.636;2023-07-08T09:47:43;100356.00;;;28.99;54.87
59435;BME280;45241;49.768;8.636;2023-07-08T09:50:19;100346.13;;;28.84;53.72
59435;BME280;45241;49.768;8.636;2023-07-08T09:52:46;100348.53;;;29.22;54.17
59435;BME280;45241;49.768;8.636;2023-07-08T09:55:13;100345.16;;;29.39;53.66
59435;BME280;45241;49.768;8.636;2023-07-08T09:57:39;100351.50;;;29.70;54.12
59435;BME280;45241;49.768;8.636;2023-07-08T10:00:11;100340.28;;;29.44;51.92
59435;BME280;45241;49.768;8.636;2023-07-08T10:02:52;100350.38;;;29.71;52.58
59435;BME280;45241;49.768;8.636;2023-07-08T10:05:24;100343.75;;;29.50;51.15
59435;BME280;45241;49.768;8.636;2023-07-08T10:07:53;100342.38;;;29.39;51.91
59435;BME280;45241;49.768;8.636;2023-07-08T10:10:29;100339.56;;;29.83;52.94
59435;BME280;45241;49.768;8.636;2023-07-08T10:12:59;100339.53;;;30.06;51.35
59435;BME280;45241;49.768;8.636;2023-07-08T10:15:37;100340.38;;;30.06;51.27
59435;BME280;45241;49.768;8.636;2023-07-08T10:18:11;100342.16;;;29.80;50.47
59435;BME280;45241;49.768;8.636;2023-07-08T10:24:24;100332.81;;;30.29;50.90
59435;BME280;45241;49.768;8.636;2023-07-08T10:26:31;100329.44;;;30.41;50.22
59435;BME280;45241;49.768;8.636;2023-07-08T10:29:18;100330.63;;;30.66;49.89
59435;BME280;45241;49.768;8.636;2023-07-08T10:31:53;100334.41;;;30.70;49.71
59435;BME280;45241;49.768;8.636;2023-07-08T10:34:33;100328.69;;;30.58;49.22
59435;BME280;45241;49.768;8.636;2023-07-08T10:40:21;100316.34;;;31.07;47.91
59435;BME280;45241;49.768;8.636;2023-07-08T10:53:30;100321.19;;;31.53;46.87
59435;BME280;45241;49.768;8.636;2023-07-08T10:56:16;100325.00;;;31.05;45.72
59435;BME280;45241;49.768;8.636;2023-07-08T11:04:38;100318.78;;;31.43;46.07
59435;BME280;45241;49.768;8.636;2023-07-08T11:09:56;100324.44;;;31.64;44.52
59435;BME280;45241;49.768;8.636;2023-07-08T11:12:29;100318.28;;;32.14;44.64
59435;BME280;45241;49.768;8.636;2023-07-08T11:17:43;100310.78;;;32.06;45.04
59435;BME280;45241;49.768;8.636;2023-07-08T11:20:21;100289.06;;;32.46;44.28
59435;BME280;45241;49.768;8.636;2023-07-08T11:23:06;100299.78;;;32.56;44.37
59435;BME280;45241;49.768;8.636;2023-07-08T11:25:33;100297.84;;;32.18;43.71
59435;BME280;45241;49.768;8.636;2023-07-08T11:28:04;100309.56;;;32.24;43.91
59435;BME280;45241;49.768;8.636;2023-07-08T11:30:32;100302.13;;;32.07;43.48
59435;BME280;45241;49.768;8.636;2023-07-08T11:33:08;100303.53;;;32.22;42.78
59435;BME280;45241;49.768;8.636;2023-07-08T11:35:45;100293.16;;;32.10;42.97
59435;BME280;45241;49.768;8.636;2023-07-08T11:38:16;100295.97;;;32.40;43.08
59435;BME280;45241;49.768;8.636;2023-07-08T11:40:55;100302.06;;;32.25;42.08
59435;BME280;45241;49.768;8.636;2023-07-08T11:43:23;100285.91;;;32.35;42.00
59435;BME280;45241;49.768;8.636;2023-07-08T11:45:50;100289.91;;;33.09;42.53
59435;BME280;45241;49.768;8.636;2023-07-08T11:48:25;100289.97;;;33.21;41.30
59435;BME280;45241;49.768;8.636;2023-07-08T11:50:52;100288.38;;;33.32;40.74
59435;BME280;45241;49.768;8.636;2023-07-08T11:53:46;100283.09;;;33.06;40.45
59435;BME280;45241;49.768;8.636;2023-07-08T11:56:20;100276.53;;;33.23;42.32
59435;BME280;45241;49.768;8.636;2023-07-08T12:01:23;100268.41;;;32.85;41.73
59435;BME280;45241;49.768;8.636;2023-07-08T12:09:22;100267.44;;;33.80;41.67
59435;BME280;45241;49.768;8.636;2023-07-08T12:11:53;100268.66;;;33.46;40.90
59435;BME280;45241;49.768;8.636;2023-07-08T12:14:19;100266.44;;;34.21;40.75
59435;BME280;45241;49.768;8.636;2023-07-08T12:16:45;100264.13;;;34.11;39.26
59435;BME280;45241;49.768;8.636;2023-07-08T12:19:15;100268.25;;;33.81;40.18
59435;BME280;45241;49.768;8.636;2023-07-08T12:21:41;100270.91;;;33.89;40.15
59435;BME280;45241;49.768;8.636;2023-07-08T12:24:07;100260.88;;;34.09;40.12
59435;BME280;45241;49.768;8.636;2023-07-08T12:26:33;100269.13;;;33.93;39.85
59435;BME280;45241;49.768;8.636;2023-07-08T12:28:59;100262.97;;;34.00;39.78
59435;BME280;45241;49.768;8.636;2023-07-08T12:31:24;100258.97;;;33.89;39.63
59435;BME280;45241;49.768;8.636;2023-07-08T12:33:50;100256.69;;;34.03;38.49
59435;BME280;45241;49.768;8.636;2023-07-08T12:36:25;100256.66;;;33.91;38.76
59435;BME280;45241;49.768;8.636;2023-07-08T12:38:52;100255.88;;;34.03;39.23
59435;BME280;45241;49.768;8.636;2023-07-08T12:41:24;100250.47;;;33.94;38.55
59435;BME280;45241;49.768;8.636;2023-07-08T12:43:51;100253.91;;;34.80;38.42
59435;BME280;45241;49.768;8.636;2023-07-08T12:46:19;100250.09;;;34.08;38.13
59435;BME280;45241;49.768;8.636;2023-07-08T12:48:45;100242.75;;;34.40;37.97
59435;BME280;45241;49.768;8.636;2023-07-08T12:51:13;100246.81;;;34.54;36.95
59435;BME280;45241;49.768;8.636;2023-07-08T12:53:39;100248.38;;;34.68;36.88
59435;BME280;45241;49.768;8.636;2023-07-08T12:56:05;100249.84;;;34.25;37.05
59435;BME280;45241;49.768;8.636;2023-07-08T12:58:33;100245.34;;;34.85;38.28
59435;BME280;45241;49.768;8.636;2023-07-08T13:01:01;100248.84;;;35.69;37.52
59435;BME280;45241;49.768;8.636;2023-07-08T13:03:30;100239.13;;;35.04;36.09
59435;BME280;45241;49.768;8.636;2023-07-08T13:05:57;100245.56;;;35.36;35.87
59435;BME280;45241;49.768;8.636;2023-07-08T13:08:26;100240.75;;;34.93;36.07
59435;BME280;45241;49.768;8.636;2023-07-08T13:10:58;100240.84;;;34.68;36.11
59435;BME280;45241;49.768;8.636;2023-07-08T13:13:27;100238.78;;;34.65;36.61
59435;BME280;45241;49.768;8.636;2023-07-08T13:15:53;100233.88;;;34.74;36.98
59435;BME280;45241;49.768;8.636;2023-07-08T13:18:28;100240.94;;;34.84;37.09
59435;BME280;45241;49.768;8.636;2023-07-08T13:20:55;100246.59;;;35.16;37.09
59435;BME280;45241;49.768;8.636;2023-07-08T13:23:22;100238.63;;;35.30;36.11
59435;BME280;45241;49.768;8.636;2023-07-08T13:25:48;100240.53;;;35.26;35.95
59435;BME280;45241;49.768;8.636;2023-07-08T13:28:22;100235.63;;;35.66;36.43
59435;BME280;45241;49.768;8.636;2023-07-08T13:31:01;100235.81;;;35.74;36.42
59435;BME280;45241;49.768;8.636;2023-07-08T13:33:32;100235.00;;;36.05;36.62
59435;BME280;45241;49.768;8.636;2023-07-08T13:35:58;100232.59;;;36.03;35.49
59435;BME280;45241;49.768;8.636;2023-07-08T13:38:32;100236.06;;;35.84;34.89
59435;BME280;45241;49.768;8.636;2023-07-08T13:41:01;100242.63;;;35.60;35.08
59435;BME280;45241;49.768;8.636;2023-07-08T13:43:30;100235.00;;;35.57;34.99
59435;BME280;45241;49.768;8.636;2023-07-08T13:45:57;100233.19;;;36.12;35.53